CheckWX is a tool to help pilots better visualize weather data.  It is not intended as a substitute for an official pre-flight weather briefing.

06:57:44 UTC

VIAR TAF
Sri Guru Ram Dass Jee International Airport
Amritsar, India
TAF VIAR 181701Z 1818/1924 VRB02KT 3000 HZ SCT035 BKN100 BECMG 1818/1822 1500 TSRA SCT035 FEW040CB OVC080 BECMG 1823/1901 00000KT 2000 HZ BR BECMG 1905/1907 16008KT 5000 HZ FEW035 SCT100 BECMG 1909/1915 1500 TSRA SCT035 FEW040CB OVC080 BECMG 1915/1917 VRB02KT 3000 HZ BR BECMG 1920/1921 00000KT 2000 HZ BR

Jun-18@
18:00 UTC

Jun-18 @ 18:00 UTC

Jun-20@
00:00 UTC

Jun-20 @ 00:00 UTC

TAF VIAR 181701Z 1818/1924 VRB02KT 3000 HZ SCT035 BKN100
Wind
  • Variable at 2 KTS
Conditions
Haze
Cloud Levels
  • Scattered at 3,500' AGL
  • Broken at 10,000' AGL

Jun-18@
18:00 UTC

Jun-18 @ 18:00 UTC

Jun-18@
23:00 UTC

Jun-18 @ 23:00 UTC

BECMG 1818/1822 1500 TSRA SCT035 FEW040CB OVC080

Expired

Wind
  • Variable at 2 KTS
Conditions
Thunderstorm, Rain
Cloud Levels
  • Scattered at 3,500' AGL
  • Few at 4,000' AGL
  • Overcast at 8,000' AGL

Jun-18@
23:00 UTC

Jun-18 @ 23:00 UTC

Jun-19@
05:00 UTC

Jun-19 @ 05:00 UTC

BECMG 1823/1901 00000KT 2000 HZ BR

Expired

Conditions
Haze, Mist
Cloud Levels
  • Scattered at 3,500' AGL
  • Few at 4,000' AGL
  • Overcast at 8,000' AGL

Jun-19@
05:00 UTC

Jun-19 @ 05:00 UTC

Jun-19@
09:00 UTC

Jun-19 @ 09:00 UTC

BECMG 1905/1907 16008KT 5000 HZ FEW035 SCT100

Becoming

Becoming Conditions expected by Wed, Jun 19, 2019 @ 07:00 UTC

Wind
  • 160° at 8 KTS
Conditions
Haze
Cloud Levels
  • Few at 3,500' AGL
  • Scattered at 10,000' AGL

Jun-19@
09:00 UTC

Jun-19 @ 09:00 UTC

Jun-19@
15:00 UTC

Jun-19 @ 15:00 UTC

BECMG 1909/1915 1500 TSRA SCT035 FEW040CB OVC080

Becoming

Becoming Conditions expected by Wed, Jun 19, 2019 @ 15:00 UTC

Wind
  • 160° at 8 KTS
Conditions
Thunderstorm, Rain
Cloud Levels
  • Scattered at 3,500' AGL
  • Few at 4,000' AGL
  • Overcast at 8,000' AGL

Jun-19@
15:00 UTC

Jun-19 @ 15:00 UTC

Jun-19@
20:00 UTC

Jun-19 @ 20:00 UTC

BECMG 1915/1917 VRB02KT 3000 HZ BR

Becoming

Becoming Conditions expected by Wed, Jun 19, 2019 @ 17:00 UTC

Wind
  • Variable at 2 KTS
Conditions
Haze, Mist
Cloud Levels
  • Scattered at 3,500' AGL
  • Few at 4,000' AGL
  • Overcast at 8,000' AGL

Jun-19@
20:00 UTC

Jun-19 @ 20:00 UTC

Jun-20@
00:00 UTC

Jun-20 @ 00:00 UTC

BECMG 1920/1921 00000KT 2000 HZ BR

Becoming

Becoming Conditions expected by Wed, Jun 19, 2019 @ 21:00 UTC

Conditions
Haze, Mist
Cloud Levels
  • Scattered at 3,500' AGL
  • Few at 4,000' AGL
  • Overcast at 8,000' AGL